Time;durP1;ratioP1;P1;durP2;ratioP2;P2;SDS_P1;SDS_P2;PMS_P1;PMS_P2;Temp;Humidity;BMP_temperature;BMP_pressure;BME280_temperature;BME280_humidity;BME280_pressure;Samples;Min_cycle;Max_cycle;Signal;HPM_P1;HPM_P2
2021/09/02 00:00:53;;;;;;;11.80;7.55;;;;;;;;;;5003697;28;20186;-72
2021/09/02 00:03:19;;;;;;;16.35;8.93;;;;;;;;;;4996813;28;20629;-72
2021/09/02 00:05:44;;;;;;;16.67;8.98;;;;;;;;;;5007506;28;20622;-72
2021/09/02 00:08:10;;;;;;;20.75;9.43;;;;;;;;;;5005014;28;20585;-72
2021/09/02 00:10:35;;;;;;;17.85;9.02;;;;;;;;;;4997584;28;20333;-72
2021/09/02 00:13:01;;;;;;;18.00;9.85;;;;;;;;;;5009087;28;20646;-72
2021/09/02 00:15:26;;;;;;;13.43;9.15;;;;;;;;;;4993737;28;21407;-72
2021/09/02 00:17:52;;;;;;;13.82;8.85;;;;;;;;;;5008611;28;20187;-72
2021/09/02 00:20:18;;;;;;;18.77;9.32;;;;;;;;;;4997896;28;20198;-72
2021/09/02 00:22:43;;;;;;;15.10;8.82;;;;;;;;;;5005119;28;20233;-72
2021/09/02 00:25:10;;;;;;;17.13;8.73;;;;;;;;;;5000724;28;20197;-72
2021/09/02 00:27:35;;;;;;;11.85;8.25;;;;;;;;;;5008004;28;20194;-72
2021/09/02 00:30:01;;;;;;;12.75;8.40;;;;;;;;;;5000287;28;20697;-72
2021/09/02 00:32:26;;;;;;;13.38;8.55;;;;;;;;;;5004456;28;20195;-72
2021/09/02 00:34:52;;;;;;;16.23;8.63;;;;;;;;;;5002868;28;20183;-72
2021/09/02 00:37:17;;;;;;;13.27;7.55;;;;;;;;;;5007540;28;20275;-72
2021/09/02 00:39:42;;;;;;;13.95;8.20;;;;;;;;;;5007796;28;20187;-72
2021/09/02 00:42:08;;;;;;;15.43;8.77;;;;;;;;;;4997797;28;20183;-72
2021/09/02 00:44:38;;;;;;;12.60;7.97;;;;;;;;;;5007914;28;20638;-72
2021/09/02 00:47:09;;;;;;;12.45;8.32;;;;;;;;;;5000267;28;20195;-72
2021/09/02 00:49:36;;;;;;;16.70;8.55;;;;;;;;;;5009996;28;20252;-72
2021/09/02 00:52:09;;;;;;;15.23;9.65;;;;;;;;;;4999783;28;20654;-72
2021/09/02 00:54:35;;;;;;;13.07;7.88;;;;;;;;;;5013066;28;20190;-72
2021/09/02 00:57:00;;;;;;;12.27;7.97;;;;;;;;;;5002724;28;20271;-72
2021/09/02 00:59:27;;;;;;;12.40;8.18;;;;;;;;;;5008675;28;20305;-72
2021/09/02 01:01:53;;;;;;;14.63;7.97;;;;;;;;;;4997552;28;20720;-72
2021/09/02 01:04:19;;;;;;;14.90;8.48;;;;;;;;;;5014893;28;20178;-72
2021/09/02 01:06:45;;;;;;;13.90;8.63;;;;;;;;;;5002742;28;20210;-72
2021/09/02 01:09:12;;;;;;;14.05;8.80;;;;;;;;;;5008077;28;20193;-72
2021/09/02 01:11:37;;;;;;;14.23;8.35;;;;;;;;;;5001358;28;20211;-72
2021/09/02 01:14:02;;;;;;;15.50;9.40;;;;;;;;;;5007479;28;20197;-72
2021/09/02 01:16:28;;;;;;;16.02;8.77;;;;;;;;;;5007485;28;20542;-72
2021/09/02 01:18:53;;;;;;;18.35;8.90;;;;;;;;;;5001830;28;20651;-72
2021/09/02 01:21:19;;;;;;;13.73;9.23;;;;;;;;;;5009180;28;20182;-72
2021/09/02 01:23:44;;;;;;;17.92;9.05;;;;;;;;;;4999772;28;20523;-71
2021/09/02 01:26:21;;;;;;;16.98;9.15;;;;;;;;;;5010389;28;20264;-71
2021/09/02 01:28:47;;;;;;;15.60;9.32;;;;;;;;;;5000981;28;20685;-72
2021/09/02 01:31:19;;;;;;;16.88;9.93;;;;;;;;;;5008059;28;20207;-72
2021/09/02 01:33:45;;;;;;;16.23;9.85;;;;;;;;;;4999476;28;20243;-72
2021/09/02 01:36:11;;;;;;;16.55;9.48;;;;;;;;;;5004694;28;20265;-72
2021/09/02 01:38:37;;;;;;;15.45;10.20;;;;;;;;;;5001533;28;20687;-72
2021/09/02 01:41:03;;;;;;;16.88;10.32;;;;;;;;;;5007980;28;20658;-72
2021/09/02 01:43:28;;;;;;;17.50;10.13;;;;;;;;;;4999089;28;20276;-72
2021/09/02 01:45:53;;;;;;;14.75;9.80;;;;;;;;;;5009674;28;20194;-72
2021/09/02 01:48:19;;;;;;;15.82;9.63;;;;;;;;;;5005453;28;20205;-72
2021/09/02 01:50:44;;;;;;;16.13;8.60;;;;;;;;;;5003581;28;20266;-72
2021/09/02 01:53:13;;;;;;;13.32;8.50;;;;;;;;;;5008937;28;20596;-72
2021/09/02 01:55:39;;;;;;;15.07;8.13;;;;;;;;;;4999567;28;20603;-72
2021/09/02 01:58:05;;;;;;;14.23;8.30;;;;;;;;;;5008962;28;20281;-72
2021/09/02 02:00:30;;;;;;;15.50;8.50;;;;;;;;;;4998263;28;20202;-72
2021/09/02 02:02:56;;;;;;;11.02;8.30;;;;;;;;;;5007971;28;20226;-72
2021/09/02 02:05:21;;;;;;;12.77;7.35;;;;;;;;;;5000890;28;20244;-72
2021/09/02 02:07:47;;;;;;;13.27;7.60;;;;;;;;;;5009617;28;20194;-72
2021/09/02 02:10:26;;;;;;;12.05;7.45;;;;;;;;;;4998857;28;20596;-73
2021/09/02 02:12:53;;;;;;;11.10;6.93;;;;;;;;;;4996453;28;20201;-72
2021/09/02 02:15:18;;;;;;;12.20;8.20;;;;;;;;;;4997952;28;20187;-72
2021/09/02 02:17:44;;;;;;;14.65;7.75;;;;;;;;;;5006913;28;20179;-72
2021/09/02 02:20:10;;;;;;;11.55;7.40;;;;;;;;;;4994993;28;20201;-72
2021/09/02 02:22:36;;;;;;;12.98;7.90;;;;;;;;;;5002959;28;20194;-72
2021/09/02 02:25:02;;;;;;;14.65;7.38;;;;;;;;;;5001599;28;20194;-72
2021/09/02 02:27:27;;;;;;;13.45;7.75;;;;;;;;;;4994629;28;20194;-72
2021/09/02 02:29:53;;;;;;;15.75;7.85;;;;;;;;;;5001099;28;20325;-72
2021/09/02 02:32:18;;;;;;;19.05;8.65;;;;;;;;;;5000612;28;20199;-72
2021/09/02 02:34:44;;;;;;;17.25;10.07;;;;;;;;;;5007147;28;20221;-72
2021/09/02 02:37:09;;;;;;;17.70;9.55;;;;;;;;;;4998231;28;20241;-72
2021/09/02 02:39:38;;;;;;;20.13;9.45;;;;;;;;;;5006230;28;20183;-72
2021/09/02 02:42:06;;;;;;;16.33;9.65;;;;;;;;;;4999604;28;20548;-72
2021/09/02 02:44:31;;;;;;;16.33;9.05;;;;;;;;;;5004623;28;20201;-72
2021/09/02 02:46:56;;;;;;;14.10;8.95;;;;;;;;;;5000746;28;20190;-72
2021/09/02 02:49:22;;;;;;;13.73;8.52;;;;;;;;;;5003323;28;20201;-72
2021/09/02 02:51:47;;;;;;;13.45;8.18;;;;;;;;;;4999361;28;20198;-72
2021/09/02 02:54:12;;;;;;;10.63;6.90;;;;;;;;;;5004230;28;20194;-72
2021/09/02 02:56:38;;;;;;;15.00;7.35;;;;;;;;;;5007618;28;20186;-72
2021/09/02 02:59:03;;;;;;;10.93;7.13;;;;;;;;;;4996279;28;20280;-72
2021/09/02 03:01:28;;;;;;;13.48;7.90;;;;;;;;;;5007453;28;20255;-73
2021/09/02 03:03:54;;;;;;;11.45;7.43;;;;;;;;;;4997970;28;20191;-72
2021/09/02 03:06:19;;;;;;;12.20;8.13;;;;;;;;;;5008724;28;20193;-72
2021/09/02 03:08:44;;;;;;;13.63;8.48;;;;;;;;;;5000729;28;20190;-72
2021/09/02 03:11:12;;;;;;;15.45;8.85;;;;;;;;;;5008971;28;20213;-72
2021/09/02 03:13:39;;;;;;;14.45;8.45;;;;;;;;;;4998871;28;20190;-72
2021/09/02 03:16:04;;;;;;;16.83;8.50;;;;;;;;;;5009063;28;20190;-72
2021/09/02 03:18:29;;;;;;;14.77;8.43;;;;;;;;;;4995641;28;20569;-72
2021/09/02 03:20:55;;;;;;;15.40;8.02;;;;;;;;;;5013231;28;20325;-72
2021/09/02 03:23:20;;;;;;;14.82;7.68;;;;;;;;;;4997945;28;20312;-72
2021/09/02 03:25:45;;;;;;;13.15;7.40;;;;;;;;;;5002923;28;20682;-72
2021/09/02 03:28:11;;;;;;;12.57;7.83;;;;;;;;;;4999212;28;20210;-72
2021/09/02 03:30:36;;;;;;;13.40;8.18;;;;;;;;;;5000023;28;20217;-72
2021/09/02 03:33:02;;;;;;;12.20;8.13;;;;;;;;;;5004776;28;20212;-72
2021/09/02 03:35:27;;;;;;;13.07;8.07;;;;;;;;;;4995071;28;20222;-72
2021/09/02 03:37:52;;;;;;;12.20;8.13;;;;;;;;;;5006638;28;20198;-72
2021/09/02 03:40:18;;;;;;;14.23;7.97;;;;;;;;;;4994324;28;20183;-72
2021/09/02 03:42:43;;;;;;;15.98;8.27;;;;;;;;;;5002976;28;20190;-72
2021/09/02 03:45:09;;;;;;;13.05;8.30;;;;;;;;;;4998663;28;20190;-72
2021/09/02 03:47:35;;;;;;;12.73;7.47;;;;;;;;;;5004074;28;20660;-72
2021/09/02 03:50:01;;;;;;;10.50;6.93;;;;;;;;;;5000949;28;20225;-72
2021/09/02 03:52:27;;;;;;;11.93;7.13;;;;;;;;;;5008344;28;20284;-72
2021/09/02 03:54:52;;;;;;;13.73;7.32;;;;;;;;;;4999475;28;20222;-72
2021/09/02 03:57:18;;;;;;;15.50;7.53;;;;;;;;;;5007803;28;20675;-72
2021/09/02 03:59:43;;;;;;;13.25;7.70;;;;;;;;;;5012577;28;21768;-72
2021/09/02 04:02:08;;;;;;;11.82;7.32;;;;;;;;;;4999376;28;20227;-72
2021/09/02 04:04:34;;;;;;;12.40;8.23;;;;;;;;;;5011929;28;20280;-70
2021/09/02 04:06:59;;;;;;;15.48;8.52;;;;;;;;;;5002591;28;20190;-71
2021/09/02 04:09:24;;;;;;;16.23;8.68;;;;;;;;;;5016740;28;20189;-71
2021/09/02 04:11:50;;;;;;;13.68;7.57;;;;;;;;;;5005281;28;20194;-71
2021/09/02 04:14:15;;;;;;;12.07;7.73;;;;;;;;;;5010746;28;20183;-71
2021/09/02 04:16:40;;;;;;;15.80;7.97;;;;;;;;;;5001204;28;20191;-71
2021/09/02 04:19:06;;;;;;;10.53;6.90;;;;;;;;;;5009874;28;20193;-71
2021/09/02 04:21:31;;;;;;;13.45;7.43;;;;;;;;;;4999715;28;20225;-71
2021/09/02 04:23:56;;;;;;;13.13;7.43;;;;;;;;;;5013466;28;20195;-71
2021/09/02 04:26:22;;;;;;;13.33;7.40;;;;;;;;;;4996390;28;20223;-71
2021/09/02 04:28:47;;;;;;;12.50;7.23;;;;;;;;;;5002332;28;20248;-71
2021/09/02 04:31:12;;;;;;;10.45;6.93;;;;;;;;;;5011009;28;20255;-71
2021/09/02 04:33:38;;;;;;;13.52;6.75;;;;;;;;;;5006005;28;20198;-71
2021/09/02 04:36:04;;;;;;;11.45;7.57;;;;;;;;;;5011605;28;20194;-71
2021/09/02 04:38:29;;;;;;;13.23;7.80;;;;;;;;;;5000182;28;20200;-71
2021/09/02 04:40:54;;;;;;;13.10;6.80;;;;;;;;;;5010696;28;20186;-71
2021/09/02 04:43:20;;;;;;;10.87;6.90;;;;;;;;;;5001485;28;20218;-71
2021/09/02 04:45:45;;;;;;;10.45;6.93;;;;;;;;;;5010966;28;20191;-71
2021/09/02 04:48:15;;;;;;;11.53;6.50;;;;;;;;;;5003692;28;20202;-71
2021/09/02 04:50:42;;;;;;;11.10;7.38;;;;;;;;;;5005149;28;20210;-71
2021/09/02 04:53:07;;;;;;;10.13;6.50;;;;;;;;;;5001016;28;20265;-71
2021/09/02 04:55:32;;;;;;;9.10;6.67;;;;;;;;;;5007152;28;20211;-71
2021/09/02 04:57:58;;;;;;;12.80;6.55;;;;;;;;;;5003980;28;20237;-71
2021/09/02 05:00:23;;;;;;;11.87;6.33;;;;;;;;;;5000619;28;20215;-71
2021/09/02 05:02:48;;;;;;;10.23;6.43;;;;;;;;;;5006042;28;20235;-71
2021/09/02 05:05:13;;;;;;;12.63;6.43;;;;;;;;;;4997023;28;20191;-71
2021/09/02 05:07:39;;;;;;;9.53;5.83;;;;;;;;;;5008257;28;20592;-71
2021/09/02 05:10:06;;;;;;;12.67;6.43;;;;;;;;;;4997241;28;20923;-71
2021/09/02 05:12:31;;;;;;;12.70;6.80;;;;;;;;;;5005846;28;20187;-71
2021/09/02 05:14:57;;;;;;;11.37;6.23;;;;;;;;;;4999049;28;20673;-71
2021/09/02 05:17:22;;;;;;;13.07;7.03;;;;;;;;;;5012560;28;20186;-71
2021/09/02 05:19:47;;;;;;;10.87;6.60;;;;;;;;;;5002241;28;20210;-71
2021/09/02 05:22:12;;;;;;;13.48;6.63;;;;;;;;;;5011279;28;20198;-71
2021/09/02 05:24:38;;;;;;;10.55;6.13;;;;;;;;;;5002476;28;20264;-71
2021/09/02 05:27:03;;;;;;;10.70;5.60;;;;;;;;;;5016161;28;20186;-71
2021/09/02 05:29:29;;;;;;;10.55;5.82;;;;;;;;;;5000326;28;20214;-71
2021/09/02 05:31:54;;;;;;;10.07;6.27;;;;;;;;;;5001589;28;20282;-71
2021/09/02 05:34:19;;;;;;;15.53;6.23;;;;;;;;;;5004212;28;20266;-71
2021/09/02 05:36:45;;;;;;;13.63;6.37;;;;;;;;;;4999583;28;20650;-71
2021/09/02 05:39:10;;;;;;;12.40;6.90;;;;;;;;;;5004671;28;20305;-70
2021/09/02 05:41:35;;;;;;;13.02;6.65;;;;;;;;;;5001958;28;20257;-71
2021/09/02 05:44:01;;;;;;;9.90;5.80;;;;;;;;;;5012757;28;20229;-71
2021/09/02 05:46:26;;;;;;;10.93;5.75;;;;;;;;;;5000635;28;20763;-71
2021/09/02 05:48:51;;;;;;;8.63;5.57;;;;;;;;;;5011846;28;20185;-71
2021/09/02 05:51:17;;;;;;;9.77;6.05;;;;;;;;;;4999482;28;20187;-71
2021/09/02 05:53:42;;;;;;;11.80;5.93;;;;;;;;;;5001736;28;20197;-71
2021/09/02 05:56:07;;;;;;;13.90;6.55;;;;;;;;;;4998209;28;21108;-71
2021/09/02 05:58:33;;;;;;;12.45;6.55;;;;;;;;;;5003841;28;20273;-71
2021/09/02 06:00:58;;;;;;;10.43;6.15;;;;;;;;;;5009304;28;20253;-71
2021/09/02 06:03:23;;;;;;;11.73;6.07;;;;;;;;;;4999312;28;20234;-71
2021/09/02 06:05:49;;;;;;;10.75;6.05;;;;;;;;;;5006909;28;20202;-71
2021/09/02 06:08:14;;;;;;;7.22;5.72;;;;;;;;;;4997787;28;20483;-71
2021/09/02 06:10:39;;;;;;;8.48;5.60;;;;;;;;;;5004994;28;20236;-71
2021/09/02 06:13:05;;;;;;;7.82;5.82;;;;;;;;;;4999705;28;20190;-71
2021/09/02 06:15:30;;;;;;;10.55;5.70;;;;;;;;;;5006139;28;20194;-71
2021/09/02 06:17:56;;;;;;;11.00;5.90;;;;;;;;;;4997996;28;21368;-71
2021/09/02 06:20:22;;;;;;;9.57;6.22;;;;;;;;;;5000620;28;20226;-71
2021/09/02 06:22:47;;;;;;;11.68;7.03;;;;;;;;;;4997284;28;20202;-71
2021/09/02 06:25:12;;;;;;;18.15;8.43;;;;;;;;;;5007218;28;20591;-71
2021/09/02 06:27:39;;;;;;;20.90;10.25;;;;;;;;;;4996856;28;20183;-71
2021/09/02 06:30:05;;;;;;;19.83;10.50;;;;;;;;;;5007378;28;20187;-71
2021/09/02 06:32:30;;;;;;;24.83;12.93;;;;;;;;;;5007209;28;20193;-71
2021/09/02 06:34:56;;;;;;;28.85;13.15;;;;;;;;;;4997960;28;20182;-71
2021/09/02 06:37:21;;;;;;;27.42;12.70;;;;;;;;;;5004551;28;20199;-71
2021/09/02 06:39:46;;;;;;;75.90;13.93;;;;;;;;;;5001847;28;20245;-71
2021/09/02 06:42:11;;;;;;;49.10;12.43;;;;;;;;;;5005422;28;20191;-71
2021/09/02 06:44:37;;;;;;;39.40;14.55;;;;;;;;;;4998041;28;20274;-71
2021/09/02 06:47:03;;;;;;;28.65;12.30;;;;;;;;;;5005069;28;20187;-71
2021/09/02 06:49:28;;;;;;;27.63;11.73;;;;;;;;;;5002056;28;20186;-71
2021/09/02 06:51:53;;;;;;;26.75;11.15;;;;;;;;;;5007064;28;20182;-71
2021/09/02 06:54:20;;;;;;;25.95;12.02;;;;;;;;;;5000302;28;20194;-71
2021/09/02 06:56:45;;;;;;;21.48;10.55;;;;;;;;;;5007226;28;20186;-71
2021/09/02 06:59:10;;;;;;;21.15;10.75;;;;;;;;;;5000183;28;20209;-71
2021/09/02 07:01:36;;;;;;;21.55;10.65;;;;;;;;;;5006823;28;20199;-71
2021/09/02 07:04:01;;;;;;;18.85;10.43;;;;;;;;;;5007559;28;20215;-71
2021/09/02 07:06:26;;;;;;;19.58;10.32;;;;;;;;;;5000833;28;20284;-71
2021/09/02 07:08:52;;;;;;;23.83;11.48;;;;;;;;;;5010819;28;20262;-71
2021/09/02 07:11:17;;;;;;;22.15;11.10;;;;;;;;;;4999103;28;20591;-71
2021/09/02 07:13:42;;;;;;;19.52;11.50;;;;;;;;;;5006634;28;20645;-71
2021/09/02 07:16:08;;;;;;;21.92;11.35;;;;;;;;;;4999868;28;20546;-71
2021/09/02 07:18:33;;;;;;;23.92;11.70;;;;;;;;;;5006297;28;20548;-71
2021/09/02 07:20:58;;;;;;;22.50;11.70;;;;;;;;;;4998897;28;20296;-71
2021/09/02 07:23:24;;;;;;;17.67;10.40;;;;;;;;;;5004811;28;20238;-71
2021/09/02 07:25:49;;;;;;;21.20;9.90;;;;;;;;;;4997254;28;20221;-71
2021/09/02 07:28:15;;;;;;;19.38;9.52;;;;;;;;;;5005376;28;20510;-71
2021/09/02 07:30:41;;;;;;;15.57;9.55;;;;;;;;;;5003688;28;20186;-71
2021/09/02 07:33:07;;;;;;;16.15;9.70;;;;;;;;;;4997474;28;20198;-71
2021/09/02 07:35:32;;;;;;;16.15;9.43;;;;;;;;;;5004426;28;20182;-71
2021/09/02 07:37:58;;;;;;;15.73;9.45;;;;;;;;;;4998222;28;20540;-71
2021/09/02 07:40:23;;;;;;;22.00;13.57;;;;;;;;;;5005699;28;20191;-70
2021/09/02 07:42:49;;;;;;;22.95;13.65;;;;;;;;;;4999086;28;20474;-70
2021/09/02 07:45:14;;;;;;;19.15;13.68;;;;;;;;;;5005269;28;20217;-70
2021/09/02 07:47:39;;;;;;;22.90;14.02;;;;;;;;;;4999419;28;20278;-70
2021/09/02 07:50:06;;;;;;;22.42;13.43;;;;;;;;;;5007491;28;20174;-71
2021/09/02 07:52:32;;;;;;;20.15;9.30;;;;;;;;;;4999183;28;20186;-70
2021/09/02 07:54:58;;;;;;;16.92;9.10;;;;;;;;;;5008162;28;20384;-71
2021/09/02 07:57:23;;;;;;;15.75;9.05;;;;;;;;;;4998044;28;21949;-71
2021/09/02 07:59:48;;;;;;;15.45;8.35;;;;;;;;;;5006318;28;20187;-71
2021/09/02 08:02:14;;;;;;;15.00;8.98;;;;;;;;;;5008155;28;20272;-71
2021/09/02 08:04:39;;;;;;;14.65;8.30;;;;;;;;;;5000189;28;20237;-71
2021/09/02 08:07:04;;;;;;;15.25;7.72;;;;;;;;;;5006304;28;20190;-72
2021/09/02 08:09:30;;;;;;;13.32;7.47;;;;;;;;;;4998432;28;20213;-71
2021/09/02 08:11:56;;;;;;;19.05;8.30;;;;;;;;;;5006330;28;20256;-71
2021/09/02 08:14:21;;;;;;;14.70;8.23;;;;;;;;;;4997926;28;20663;-71
2021/09/02 08:16:47;;;;;;;19.13;8.32;;;;;;;;;;5008065;28;20248;-72
2021/09/02 08:19:13;;;;;;;16.50;7.90;;;;;;;;;;4997415;28;20193;-72
2021/09/02 08:21:39;;;;;;;82.60;46.67;;;;;;;;;;5004390;28;20254;-71
2021/09/02 08:24:06;;;;;;;20.20;10.13;;;;;;;;;;4996221;28;20290;-72
2021/09/02 08:26:33;;;;;;;16.30;9.43;;;;;;;;;;5003212;28;20808;-72
2021/09/02 08:28:59;;;;;;;14.45;8.73;;;;;;;;;;4997946;28;20245;-71
2021/09/02 08:31:24;;;;;;;16.25;8.80;;;;;;;;;;5005432;28;20710;-71
2021/09/02 08:33:50;;;;;;;15.85;8.68;;;;;;;;;;5006989;28;20194;-70
2021/09/02 08:36:15;;;;;;;16.70;9.10;;;;;;;;;;4996975;28;20191;-71
2021/09/02 08:38:42;;;;;;;15.75;7.85;;;;;;;;;;5004983;28;20543;-72
2021/09/02 08:41:08;;;;;;;14.00;8.20;;;;;;;;;;4996915;28;20218;-71
2021/09/02 08:43:35;;;;;;;16.27;6.57;;;;;;;;;;5007075;28;20178;-71
2021/09/02 08:46:02;;;;;;;16.70;6.72;;;;;;;;;;5002704;28;20202;-70
2021/09/02 08:48:29;;;;;;;15.73;8.10;;;;;;;;;;5012524;28;20191;-71
2021/09/02 08:50:54;;;;;;;13.95;6.85;;;;;;;;;;4999635;28;20198;-72
2021/09/02 08:53:20;;;;;;;15.48;7.72;;;;;;;;;;5009511;28;20170;-72
2021/09/02 08:55:45;;;;;;;14.73;6.43;;;;;;;;;;4999200;28;20185;-70
2021/09/02 08:58:10;;;;;;;11.35;6.10;;;;;;;;;;5008068;28;20625;-72
2021/09/02 09:00:36;;;;;;;17.27;6.60;;;;;;;;;;5002748;28;20237;-71
2021/09/02 09:03:03;;;;;;;12.80;5.93;;;;;;;;;;5009407;28;20612;-71
2021/09/02 09:05:34;;;;;;;12.48;5.78;;;;;;;;;;5003189;28;20220;-71
2021/09/02 09:08:03;;;;;;;12.98;6.07;;;;;;;;;;5010864;28;20179;-71
2021/09/02 09:10:30;;;;;;;15.25;6.10;;;;;;;;;;5008586;28;20191;-71
2021/09/02 09:12:59;;;;;;;15.60;6.72;;;;;;;;;;4999293;28;20207;-71
2021/09/02 09:15:25;;;;;;;11.98;6.05;;;;;;;;;;5008577;28;20227;-69
2021/09/02 09:17:53;;;;;;;10.93;5.50;;;;;;;;;;5000302;28;20195;-70
2021/09/02 09:20:22;;;;;;;12.07;5.85;;;;;;;;;;5005951;28;20326;-71
2021/09/02 09:22:49;;;;;;;13.98;6.43;;;;;;;;;;5001452;28;20206;-71
2021/09/02 09:25:15;;;;;;;15.43;6.40;;;;;;;;;;5008601;28;20237;-72
2021/09/02 09:27:50;;;;;;;11.38;5.70;;;;;;;;;;5000989;28;20190;-71
2021/09/02 09:30:17;;;;;;;12.18;6.13;;;;;;;;;;5004393;28;20721;-71
2021/09/02 09:32:47;;;;;;;12.32;6.18;;;;;;;;;;5000370;28;20282;-72
2021/09/02 09:35:19;;;;;;;13.88;6.03;;;;;;;;;;5008746;28;20204;-72
2021/09/02 09:37:46;;;;;;;14.18;6.40;;;;;;;;;;4992699;28;20211;-72
2021/09/02 09:40:18;;;;;;;11.57;6.30;;;;;;;;;;5004116;28;20215;-71
2021/09/02 09:43:07;;;;;;;17.77;7.00;;;;;;;;;;5002316;28;21213;-71
2021/09/02 09:45:34;;;;;;;14.05;6.30;;;;;;;;;;5008625;28;20208;-71
2021/09/02 09:47:59;;;;;;;13.13;5.95;;;;;;;;;;5000274;28;20187;-71
2021/09/02 09:50:25;;;;;;;11.68;6.03;;;;;;;;;;5009402;28;20607;-70
2021/09/02 09:52:50;;;;;;;15.27;6.45;;;;;;;;;;4999985;28;20187;-71
2021/09/02 09:55:17;;;;;;;11.15;5.88;;;;;;;;;;5005914;28;20198;-72
2021/09/02 09:57:43;;;;;;;12.25;6.95;;;;;;;;;;5005633;28;20691;-72
2021/09/02 10:00:16;;;;;;;16.08;6.53;;;;;;;;;;4999207;28;20214;-72
2021/09/02 10:02:44;;;;;;;12.70;6.70;;;;;;;;;;5007981;28;20313;-72
2021/09/02 10:05:12;;;;;;;13.02;6.47;;;;;;;;;;4999040;28;20206;-71
2021/09/02 10:07:40;;;;;;;15.50;7.22;;;;;;;;;;5005782;28;20194;-71
2021/09/02 10:10:09;;;;;;;15.20;6.68;;;;;;;;;;4999207;28;20662;-71
2021/09/02 10:12:35;;;;;;;15.00;6.43;;;;;;;;;;5008130;28;20225;-71
2021/09/02 10:15:06;;;;;;;16.48;6.47;;;;;;;;;;4999406;28;20200;-71
2021/09/02 10:17:36;;;;;;;11.63;6.28;;;;;;;;;;5004369;28;20185;-71
2021/09/02 10:20:08;;;;;;;11.85;6.45;;;;;;;;;;4999633;28;20215;-71
2021/09/02 10:22:34;;;;;;;12.65;6.82;;;;;;;;;;5007475;28;20704;-70
2021/09/02 10:24:59;;;;;;;10.65;6.25;;;;;;;;;;4998430;28;20191;-71
2021/09/02 10:27:25;;;;;;;12.07;6.20;;;;;;;;;;5005379;28;20213;-71
2021/09/02 10:29:52;;;;;;;13.82;6.88;;;;;;;;;;4999565;28;20179;-71
2021/09/02 10:32:24;;;;;;;15.90;7.07;;;;;;;;;;5006296;28;20198;-71
2021/09/02 10:34:53;;;;;;;15.95;6.53;;;;;;;;;;5003493;28;20198;-71
2021/09/02 10:37:33;;;;;;;15.15;6.95;;;;;;;;;;5004107;28;20203;-71
2021/09/02 10:40:00;;;;;;;14.02;6.75;;;;;;;;;;5004058;28;20195;-71
2021/09/02 10:42:41;;;;;;;13.93;7.18;;;;;;;;;;4996564;28;20184;-71
2021/09/02 10:45:27;;;;;;;13.57;7.13;;;;;;;;;;5002105;28;20399;-70
2021/09/02 10:48:00;;;;;;;15.88;7.60;;;;;;;;;;4999788;28;20199;-71
2021/09/02 10:50:29;;;;;;;13.85;7.50;;;;;;;;;;5004762;28;20189;-71
2021/09/02 10:53:10;;;;;;;13.25;6.95;;;;;;;;;;4995697;28;20194;-72
2021/09/02 10:55:40;;;;;;;14.95;6.88;;;;;;;;;;5009200;28;20549;-71
2021/09/02 10:58:07;;;;;;;13.30;6.95;;;;;;;;;;4997340;28;20221;-70
2021/09/02 11:00:34;;;;;;;16.88;7.10;;;;;;;;;;5007351;28;20546;-70
2021/09/02 11:03:21;;;;;;;12.73;6.45;;;;;;;;;;4999692;28;20233;-70
2021/09/02 11:05:55;;;;;;;16.55;7.28;;;;;;;;;;5005272;28;20666;-71
2021/09/02 11:08:35;;;;;;;17.00;7.40;;;;;;;;;;4998579;28;20239;-72
2021/09/02 11:11:21;;;;;;;15.02;6.72;;;;;;;;;;5001496;28;20281;-71
2021/09/02 11:13:55;;;;;;;14.75;7.43;;;;;;;;;;4999659;28;20240;-71
2021/09/02 11:16:23;;;;;;;16.38;6.80;;;;;;;;;;5004671;28;20584;-71
2021/09/02 11:18:54;;;;;;;11.95;6.70;;;;;;;;;;4999653;28;20195;-72
2021/09/02 11:21:23;;;;;;;13.88;6.60;;;;;;;;;;5004088;28;20206;-72
2021/09/02 11:23:55;;;;;;;10.55;6.60;;;;;;;;;;4997161;28;20210;-72
2021/09/02 11:26:36;;;;;;;14.23;7.32;;;;;;;;;;5005371;28;20191;-72
2021/09/02 11:29:03;;;;;;;16.38;6.80;;;;;;;;;;4998074;28;20724;-73
2021/09/02 11:31:30;;;;;;;15.23;7.20;;;;;;;;;;5006367;28;20190;-70
2021/09/02 11:33:56;;;;;;;15.82;7.03;;;;;;;;;;4997408;28;20543;-72
2021/09/02 11:36:21;;;;;;;14.32;7.38;;;;;;;;;;5004448;28;20270;-71
2021/09/02 11:38:48;;;;;;;11.45;7.15;;;;;;;;;;5000989;28;20196;-71
2021/09/02 11:41:23;;;;;;;14.30;7.22;;;;;;;;;;5005298;28;20198;-71
2021/09/02 11:43:53;;;;;;;14.57;7.30;;;;;;;;;;4996592;28;20262;-71
2021/09/02 11:46:20;;;;;;;12.90;7.55;;;;;;;;;;5005816;28;20171;-72
2021/09/02 11:48:53;;;;;;;13.73;7.43;;;;;;;;;;4996949;28;24720;-72
2021/09/02 11:51:21;;;;;;;11.23;6.97;;;;;;;;;;5005381;28;20187;-74
2021/09/02 11:53:50;;;;;;;12.80;7.43;;;;;;;;;;4999360;28;20210;-72
2021/09/02 11:56:19;;;;;;;12.13;6.97;;;;;;;;;;5006581;28;20715;-72
2021/09/02 11:58:45;;;;;;;14.30;7.72;;;;;;;;;;5005582;28;20704;-71
2021/09/02 12:01:12;;;;;;;16.90;7.85;;;;;;;;;;4995634;28;20317;-72
2021/09/02 12:03:37;;;;;;;11.10;7.55;;;;;;;;;;5002412;28;20655;-72
2021/09/02 12:06:03;;;;;;;13.73;7.88;;;;;;;;;;4998727;28;20195;-71
2021/09/02 12:08:29;;;;;;;12.55;7.63;;;;;;;;;;5006542;28;20222;-71
2021/09/02 12:10:55;;;;;;;12.63;7.10;;;;;;;;;;4993849;28;20194;-73
2021/09/02 12:13:25;;;;;;;11.77;7.85;;;;;;;;;;5005192;28;20199;-71
2021/09/02 12:16:20;;;;;;;12.00;7.68;;;;;;;;;;4995006;28;20199;-72
2021/09/02 12:18:48;;;;;;;13.38;7.57;;;;;;;;;;5006483;28;20186;-73
2021/09/02 12:21:17;;;;;;;13.98;7.03;;;;;;;;;;4995826;28;20333;-72
2021/09/02 12:23:51;;;;;;;13.98;6.57;;;;;;;;;;5008921;28;20496;-72
2021/09/02 12:26:19;;;;;;;11.85;6.95;;;;;;;;;;5003991;28;20241;-72
2021/09/02 12:28:47;;;;;;;13.93;7.60;;;;;;;;;;5009867;28;20201;-73
2021/09/02 12:31:13;;;;;;;15.00;7.70;;;;;;;;;;4998551;28;20191;-71
2021/09/02 12:34:08;;;;;;;13.52;6.80;;;;;;;;;;5007527;28;20198;-72
2021/09/02 12:36:39;;;;;;;14.13;8.27;;;;;;;;;;5003000;28;20276;-71
2021/09/02 12:39:16;;;;;;;14.90;8.05;;;;;;;;;;5007569;28;20650;-71
2021/09/02 12:41:44;;;;;;;12.60;8.05;;;;;;;;;;4996348;28;20221;-73
2021/09/02 12:44:12;;;;;;;12.23;7.70;;;;;;;;;;5007192;28;20218;-72
2021/09/02 12:47:06;;;;;;;12.25;7.45;;;;;;;;;;5000569;28;21302;-71
2021/09/02 12:49:37;;;;;;;14.10;7.95;;;;;;;;;;4313087;28;10000724;-72
2021/09/02 12:52:05;;;;;;;12.48;7.68;;;;;;;;;;4996569;28;20265;-72
2021/09/02 12:55:03;;;;;;;14.43;7.72;;;;;;;;;;5005277;28;20186;-73
2021/09/02 12:57:31;;;;;;;13.27;7.70;;;;;;;;;;4997858;28;20777;-71
2021/09/02 12:59:57;;;;;;;15.00;8.15;;;;;;;;;;5004605;28;20576;-72
2021/09/02 13:02:23;;;;;;;12.90;7.30;;;;;;;;;;4997817;28;20241;-72
2021/09/02 13:04:48;;;;;;;13.65;7.60;;;;;;;;;;5002368;28;20262;-73
2021/09/02 13:07:13;;;;;;;14.27;7.95;;;;;;;;;;5004533;28;20259;-73
2021/09/02 13:09:39;;;;;;;12.73;7.40;;;;;;;;;;4997663;28;20190;-72
2021/09/02 13:12:04;;;;;;;12.10;7.65;;;;;;;;;;5003730;28;20179;-71
2021/09/02 13:14:30;;;;;;;10.68;6.93;;;;;;;;;;4997024;28;20190;-71
2021/09/02 13:16:55;;;;;;;13.32;7.32;;;;;;;;;;5005597;28;20657;-72
2021/09/02 13:19:20;;;;;;;16.05;7.78;;;;;;;;;;4995822;28;20661;-73
2021/09/02 13:21:46;;;;;;;12.70;7.22;;;;;;;;;;5002523;28;21085;-71
2021/09/02 13:24:11;;;;;;;13.38;7.82;;;;;;;;;;4995884;28;20764;-70
2021/09/02 13:26:36;;;;;;;15.18;7.10;;;;;;;;;;5001101;28;20562;-71
2021/09/02 13:29:02;;;;;;;15.73;7.55;;;;;;;;;;4997720;28;20179;-72
2021/09/02 13:31:27;;;;;;;11.93;7.10;;;;;;;;;;5004045;28;20368;-70
2021/09/02 13:33:53;;;;;;;10.43;7.38;;;;;;;;;;5005246;28;20213;-72
2021/09/02 13:36:20;;;;;;;13.55;7.63;;;;;;;;;;4994721;28;20661;-72
2021/09/02 13:38:46;;;;;;;11.18;7.43;;;;;;;;;;5006382;28;20278;-72
2021/09/02 13:41:11;;;;;;;14.85;7.93;;;;;;;;;;4995962;28;20704;-71
2021/09/02 13:43:36;;;;;;;13.18;8.10;;;;;;;;;;5004963;28;20179;-72
2021/09/02 13:46:02;;;;;;;15.30;6.97;;;;;;;;;;4994229;28;20657;-72
2021/09/02 13:48:27;;;;;;;12.65;6.72;;;;;;;;;;5003742;28;20382;-70
2021/09/02 13:50:53;;;;;;;11.48;6.72;;;;;;;;;;4994460;28;20190;-71
2021/09/02 13:53:18;;;;;;;12.40;6.90;;;;;;;;;;5003430;28;20182;-67
2021/09/02 13:55:43;;;;;;;11.57;6.93;;;;;;;;;;4995473;28;20273;-70
2021/09/02 13:58:09;;;;;;;11.95;7.70;;;;;;;;;;5004768;28;20245;-68
2021/09/02 14:00:39;;;;;;;11.45;7.13;;;;;;;;;;4999901;28;20227;-66
2021/09/02 14:03:04;;;;;;;10.15;7.38;;;;;;;;;;5002905;28;20218;-70
2021/09/02 14:05:30;;;;;;;11.55;7.07;;;;;;;;;;5004853;28;20202;-70
2021/09/02 14:07:56;;;;;;;14.13;7.45;;;;;;;;;;4996901;28;20194;-70
2021/09/02 14:10:21;;;;;;;9.73;6.18;;;;;;;;;;5003977;28;20198;-71
2021/09/02 14:12:47;;;;;;;11.48;6.95;;;;;;;;;;4996549;28;20643;-70
2021/09/02 14:15:13;;;;;;;10.57;7.15;;;;;;;;;;5002611;28;20190;-70
2021/09/02 14:17:39;;;;;;;9.18;7.00;;;;;;;;;;4993794;28;20646;-69
2021/09/02 14:20:05;;;;;;;11.55;7.10;;;;;;;;;;5000597;28;20191;-68
2021/09/02 14:22:30;;;;;;;10.27;7.07;;;;;;;;;;4996955;28;20194;-69
2021/09/02 14:24:55;;;;;;;11.40;6.85;;;;;;;;;;5001571;28;20266;-70
2021/09/02 14:27:21;;;;;;;12.50;6.57;;;;;;;;;;4996653;28;20516;-70